Time;durP1;ratioP1;P1;durP2;ratioP2;P2;SDS_P1;SDS_P2;PMS_P1;PMS_P2;Temp;Humidity;BMP_temperature;BMP_pressure;BME280_temperature;BME280_humidity;BME280_pressure;Samples;Min_cycle;Max_cycle;Signal;HPM_P1;HPM_P2
2023/05/29 00:00:28;;;;;;;8.25;2.92;;;13.00;70.50;;;;;;4719796;30;20055;-93
2023/05/29 00:02:56;;;;;;;7.10;2.92;;;13.00;70.50;;;;;;4719237;30;20053;-95
2023/05/29 00:05:23;;;;;;;8.00;3.00;;;12.90;70.60;;;;;;4720002;30;20064;-93
2023/05/29 00:07:50;;;;;;;7.83;2.60;;;12.90;70.50;;;;;;4705900;30;20053;-95
2023/05/29 00:10:17;;;;;;;8.43;2.80;;;12.90;70.70;;;;;;4705718;30;20500;-94
2023/05/29 00:12:45;;;;;;;10.02;3.30;;;12.80;70.70;;;;;;4719472;30;20144;-93
2023/05/29 00:15:12;;;;;;;6.93;2.45;;;12.80;70.80;;;;;;4719399;30;20124;-95
2023/05/29 00:17:40;;;;;;;8.77;3.05;;;12.80;70.90;;;;;;4704935;30;20057;-93
2023/05/29 00:20:11;;;;;;;6.60;2.60;;;12.80;70.80;;;;;;4718432;30;20049;-94
2023/05/29 00:22:39;;;;;;;7.55;2.83;;;12.80;70.70;;;;;;4705368;30;20128;-96
2023/05/29 00:25:07;;;;;;;7.25;2.90;;;12.80;70.60;;;;;;4705063;30;20049;-94
2023/05/29 00:31:39;;;;;;;9.55;3.08;;;12.70;70.60;;;;;;4731342;30;20236;-96
2023/05/29 00:34:06;;;;;;;9.43;3.00;;;12.70;70.30;;;;;;4714583;30;20512;-96
2023/05/29 00:36:34;;;;;;;9.20;2.65;;;12.80;70.60;;;;;;4710331;30;21167;-96
2023/05/29 00:39:02;;;;;;;10.93;2.83;;;12.70;70.40;;;;;;4726685;30;20060;-96
2023/05/29 00:41:32;;;;;;;7.38;2.40;;;12.60;71.20;;;;;;4728515;30;20057;-96
2023/05/29 00:44:00;;;;;;;6.75;2.97;;;12.60;71.10;;;;;;4698879;30;20064;-96
2023/05/29 00:46:28;;;;;;;8.20;2.70;;;12.50;71.20;;;;;;4711575;30;20045;-96
2023/05/29 00:48:55;;;;;;;7.82;2.80;;;12.50;71.20;;;;;;4725332;30;20080;-96
2023/05/29 00:51:23;;;;;;;9.07;3.22;;;12.50;71.50;;;;;;4710515;30;20057;-96
2023/05/29 00:53:51;;;;;;;7.25;2.95;;;12.40;71.70;;;;;;4721448;30;20063;-95
2023/05/29 00:56:20;;;;;;;6.25;2.40;;;12.30;71.60;;;;;;4720901;30;20475;-96
2023/05/29 00:58:49;;;;;;;9.37;3.10;;;12.30;71.50;;;;;;4721806;30;20120;-95
2023/05/29 01:01:21;;;;;;;7.80;3.08;;;12.30;71.70;;;;;;4707529;30;20055;-96
2023/05/29 01:04:07;;;;;;;6.35;2.50;;;12.30;71.80;;;;;;4722585;30;20078;-96
2023/05/29 01:06:35;;;;;;;7.28;2.53;;;12.40;71.80;;;;;;4707807;30;20057;-95
2023/05/29 01:09:06;;;;;;;8.10;3.08;;;12.30;72.00;;;;;;4711423;30;20271;-96
2023/05/29 01:11:48;;;;;;;6.70;2.37;;;12.30;71.80;;;;;;4710413;30;20061;-96
2023/05/29 01:14:39;;;;;;;9.10;2.58;;;12.30;71.70;;;;;;4724966;30;20049;-96
2023/05/29 01:17:17;;;;;;;7.57;2.78;;;12.30;71.80;;;;;;4709207;30;20053;-95
2023/05/29 01:19:50;;;;;;;7.70;2.50;;;12.30;71.80;;;;;;4710040;30;20117;-96
2023/05/29 01:22:42;;;;;;;7.18;2.88;;;12.30;71.40;;;;;;4709231;30;20049;-95
2023/05/29 01:25:41;;;;;;;8.90;2.67;;;12.30;71.10;;;;;;4724747;30;20053;-96
2023/05/29 01:28:21;;;;;;;8.45;2.53;;;12.20;71.40;;;;;;4723138;30;20053;-96
2023/05/29 01:30:50;;;;;;;7.07;2.72;;;12.20;71.40;;;;;;4695959;30;20128;-96
2023/05/29 01:33:18;;;;;;;7.15;2.47;;;12.20;71.10;;;;;;4717407;30;20053;-96
2023/05/29 01:35:45;;;;;;;9.10;2.67;;;12.20;71.20;;;;;;4730847;30;20053;-96
2023/05/29 01:52:17;;;;;;;7.38;2.20;;;12.10;71.50;;;;;;4689106;30;20124;-96
2023/05/29 01:59:25;;;;;;;7.00;2.30;;;12.00;71.80;;;;;;4669971;30;20074;-95
2023/05/29 02:04:54;;;;;;;6.55;2.72;;;12.00;71.60;;;;;;4789481;30;20065;-92
2023/05/29 02:07:24;;;;;;;7.82;2.30;;;11.90;71.70;;;;;;4761057;30;20051;-92
2023/05/29 02:09:51;;;;;;;7.18;2.50;;;11.90;71.60;;;;;;4760969;30;20047;-92
2023/05/29 02:12:19;;;;;;;7.07;2.30;;;11.80;71.60;;;;;;4761334;29;20052;-91
2023/05/29 02:14:46;;;;;;;7.57;2.83;;;11.80;71.30;;;;;;4760903;30;20051;-92
2023/05/29 02:17:14;;;;;;;8.00;2.78;;;11.70;71.70;;;;;;4761195;30;20051;-92
2023/05/29 02:19:44;;;;;;;9.20;3.05;;;11.70;71.90;;;;;;4775606;29;20142;-92
2023/05/29 02:22:12;;;;;;;7.10;2.80;;;11.70;72.10;;;;;;4775775;30;20097;-93
2023/05/29 02:24:39;;;;;;;7.47;2.43;;;11.70;71.70;;;;;;4760848;30;20070;-92
2023/05/29 02:27:06;;;;;;;7.72;2.53;;;11.70;71.80;;;;;;4761018;30;20059;-92
2023/05/29 02:29:33;;;;;;;7.93;2.75;;;11.70;71.50;;;;;;4760838;29;20052;-91
2023/05/29 02:32:01;;;;;;;6.53;2.50;;;11.70;71.50;;;;;;4775799;30;20055;-92
2023/05/29 02:34:29;;;;;;;7.45;2.60;;;11.70;71.60;;;;;;4760761;30;20067;-92
2023/05/29 02:36:56;;;;;;;8.33;3.30;;;11.70;71.80;;;;;;4760820;29;20090;-92
2023/05/29 02:39:23;;;;;;;7.22;2.25;;;11.60;72.10;;;;;;4775368;30;20052;-92
2023/05/29 02:41:50;;;;;;;8.07;3.15;;;11.50;72.20;;;;;;4759863;29;20585;-93
2023/05/29 02:44:19;;;;;;;6.72;2.70;;;11.50;72.10;;;;;;4760833;30;20043;-92
2023/05/29 02:46:46;;;;;;;7.82;3.00;;;11.50;72.20;;;;;;4760769;30;20062;-91
2023/05/29 02:49:15;;;;;;;7.47;2.67;;;11.50;72.10;;;;;;4760615;29;20143;-92
2023/05/29 02:51:42;;;;;;;8.75;3.13;;;11.50;72.30;;;;;;4774921;30;20502;-91
2023/05/29 02:54:12;;;;;;;7.68;3.08;;;11.50;72.30;;;;;;4760331;29;20047;-91
2023/05/29 02:56:40;;;;;;;8.85;2.90;;;11.50;72.60;;;;;;4760362;30;20055;-91
2023/05/29 02:59:08;;;;;;;10.15;3.15;;;11.30;72.80;;;;;;4775019;29;20051;-91
2023/05/29 03:01:35;;;;;;;7.33;2.77;;;11.30;72.90;;;;;;4760306;30;20051;-92
2023/05/29 03:04:02;;;;;;;8.35;2.70;;;11.30;72.70;;;;;;4760281;30;20070;-92
2023/05/29 03:06:32;;;;;;;8.93;2.85;;;11.30;73.00;;;;;;4774863;30;20055;-92
2023/05/29 03:08:59;;;;;;;9.55;2.80;;;11.40;73.20;;;;;;4775105;30;20472;-91
2023/05/29 03:11:26;;;;;;;8.65;2.90;;;11.30;73.20;;;;;;4760328;29;20095;-92
2023/05/29 03:13:54;;;;;;;8.13;3.00;;;11.30;73.20;;;;;;4760323;30;20066;-92
2023/05/29 03:16:21;;;;;;;7.47;2.90;;;11.20;73.20;;;;;;4759631;29;20397;-91
2023/05/29 03:18:48;;;;;;;7.55;3.30;;;11.30;73.30;;;;;;4774817;30;20052;-91
2023/05/29 03:21:18;;;;;;;8.25;3.22;;;11.30;73.50;;;;;;4760665;29;20067;-91
2023/05/29 03:23:45;;;;;;;8.00;2.95;;;11.30;73.50;;;;;;4774805;30;20055;-92
2023/05/29 03:26:13;;;;;;;7.47;2.73;;;11.40;73.40;;;;;;4760167;30;20055;-92
2023/05/29 03:28:42;;;;;;;8.50;3.17;;;11.40;73.30;;;;;;4760213;30;20057;-91
2023/05/29 03:31:10;;;;;;;7.35;2.80;;;11.40;73.30;;;;;;4759976;30;20055;-91
2023/05/29 03:33:37;;;;;;;6.80;2.60;;;11.40;73.60;;;;;;4774227;30;20070;-91
2023/05/29 03:36:36;;;;;;;9.20;2.58;;;11.40;73.50;;;;;;4769260;29;20051;-91
2023/05/29 03:39:03;;;;;;;7.90;2.83;;;11.50;73.20;;;;;;4759864;30;20083;-91
2023/05/29 03:41:33;;;;;;;6.95;2.75;;;11.50;73.40;;;;;;4759551;29;20051;-92
2023/05/29 03:44:00;;;;;;;8.43;3.25;;;11.50;73.70;;;;;;4774224;30;20047;-92
2023/05/29 03:46:31;;;;;;;8.70;3.20;;;11.50;74.00;;;;;;4760835;30;20067;-91
2023/05/29 03:48:59;;;;;;;9.65;2.83;;;11.30;74.30;;;;;;4771612;30;20052;-91
2023/05/29 03:56:16;;;;;;;8.50;3.15;;;11.20;75.00;;;;;;4772592;30;20059;-91
2023/05/29 03:58:44;;;;;;;9.68;2.97;;;11.20;75.10;;;;;;4771189;30;20056;-91
2023/05/29 04:01:12;;;;;;;8.52;3.33;;;11.10;75.50;;;;;;4760410;30;20052;-93
2023/05/29 04:03:39;;;;;;;9.30;3.38;;;11.00;75.70;;;;;;4759277;30;20074;-93
2023/05/29 04:06:06;;;;;;;8.80;3.07;;;11.00;75.40;;;;;;4759560;30;20574;-91
2023/05/29 04:08:35;;;;;;;7.80;3.00;;;11.10;75.40;;;;;;4759340;30;20147;-91
2023/05/29 04:11:03;;;;;;;10.38;3.30;;;11.20;75.50;;;;;;4759553;30;20047;-91
2023/05/29 04:13:30;;;;;;;10.45;3.40;;;11.30;75.20;;;;;;4773965;30;20079;-91
2023/05/29 04:15:57;;;;;;;12.25;3.63;;;11.30;75.20;;;;;;4773821;29;20040;-91
2023/05/29 04:18:25;;;;;;;9.63;3.27;;;11.40;75.00;;;;;;4774192;30;20062;-92
2023/05/29 04:20:53;;;;;;;7.90;3.20;;;11.40;74.90;;;;;;4759173;29;20051;-92
2023/05/29 04:23:21;;;;;;;8.95;3.20;;;11.50;74.70;;;;;;4774074;30;20150;-92
2023/05/29 04:25:50;;;;;;;10.88;3.10;;;11.50;75.00;;;;;;4759181;29;20514;-92
2023/05/29 04:28:23;;;;;;;9.45;3.72;;;11.60;74.90;;;;;;4759914;30;20097;-92
2023/05/29 04:30:51;;;;;;;9.03;3.23;;;11.50;75.00;;;;;;4759093;29;20142;-92
2023/05/29 04:33:20;;;;;;;9.43;3.45;;;11.60;75.20;;;;;;4770400;30;20066;-92
2023/05/29 04:35:50;;;;;;;9.70;3.80;;;11.60;75.00;;;;;;4759310;30;20505;-92
2023/05/29 04:38:19;;;;;;;10.48;3.30;;;11.60;74.70;;;;;;4773536;30;20507;-92
2023/05/29 04:40:47;;;;;;;8.02;3.13;;;11.70;74.50;;;;;;4759006;30;20115;-92
2023/05/29 04:43:18;;;;;;;9.30;3.20;;;11.80;74.80;;;;;;4759406;29;20058;-91
2023/05/29 04:46:02;;;;;;;12.93;3.55;;;11.90;74.50;;;;;;4760891;29;20055;-92
2023/05/29 04:48:32;;;;;;;11.40;3.70;;;11.90;74.40;;;;;;4759104;30;20051;-92
2023/05/29 04:51:00;;;;;;;12.48;3.70;;;12.00;74.30;;;;;;4758764;29;20047;-92
2023/05/29 04:53:27;;;;;;;10.70;3.67;;;12.00;74.80;;;;;;4758494;30;20051;-91
2023/05/29 04:55:55;;;;;;;10.40;3.93;;;12.10;74.50;;;;;;4758829;30;20047;-92
2023/05/29 04:58:24;;;;;;;11.52;4.50;;;12.30;73.90;;;;;;4758467;30;20521;-92
2023/05/29 05:00:51;;;;;;;11.90;4.18;;;12.40;73.60;;;;;;4773483;30;20058;-93
2023/05/29 05:03:18;;;;;;;14.73;4.55;;;12.50;73.70;;;;;;4773413;30;20059;-93
2023/05/29 05:05:45;;;;;;;14.32;4.15;;;12.50;73.60;;;;;;4773373;30;20143;-93
2023/05/29 05:08:14;;;;;;;13.03;4.37;;;12.70;73.20;;;;;;4773188;30;20055;-92
2023/05/29 05:10:41;;;;;;;12.60;4.43;;;12.80;73.10;;;;;;4773572;30;20059;-93
2023/05/29 05:13:11;;;;;;;14.93;4.55;;;12.90;72.90;;;;;;4773131;30;20054;-92
2023/05/29 05:15:38;;;;;;;17.05;4.80;;;12.90;72.80;;;;;;4773568;30;20375;-92
2023/05/29 05:18:05;;;;;;;12.88;5.00;;;13.00;72.70;;;;;;4773481;30;20043;-93
2023/05/29 05:20:33;;;;;;;11.70;4.97;;;13.10;72.80;;;;;;4773593;30;20054;-92
2023/05/29 05:23:01;;;;;;;12.27;4.80;;;13.10;72.10;;;;;;4774531;30;20062;-92
2023/05/29 05:25:28;;;;;;;13.93;5.07;;;13.20;71.70;;;;;;4773321;30;20086;-92
2023/05/29 05:27:55;;;;;;;16.35;5.85;;;13.30;71.80;;;;;;4773386;30;20497;-92
2023/05/29 05:30:24;;;;;;;16.20;6.10;;;13.50;71.40;;;;;;4773640;30;20055;-92
2023/05/29 05:32:51;;;;;;;14.93;5.90;;;13.60;71.40;;;;;;4773273;30;20051;-92
2023/05/29 05:35:21;;;;;;;16.30;6.28;;;13.80;70.40;;;;;;4773508;30;20047;-92
2023/05/29 05:37:48;;;;;;;17.00;6.28;;;14.00;70.30;;;;;;4773351;30;20055;-93
2023/05/29 05:40:15;;;;;;;12.13;5.72;;;14.20;70.20;;;;;;4773921;30;20104;-93
2023/05/29 05:43:06;;;;;;;14.25;6.70;;;14.30;70.00;;;;;;4776333;30;20417;-92
2023/05/29 05:45:51;;;;;;;17.03;6.57;;;14.30;69.60;;;;;;4775844;30;20074;-92
2023/05/29 05:48:19;;;;;;;15.95;6.60;;;14.40;69.60;;;;;;4773373;30;20047;-92
2023/05/29 05:50:47;;;;;;;37.75;8.32;;;14.50;69.60;;;;;;4757893;30;20569;-92
2023/05/29 05:53:14;;;;;;;17.45;6.82;;;14.50;69.80;;;;;;4757706;30;20047;-90
2023/05/29 05:55:41;;;;;;;29.30;7.65;;;14.60;69.80;;;;;;4772632;29;20048;-90
2023/05/29 05:58:09;;;;;;;17.23;5.73;;;14.80;68.90;;;;;;4757724;30;20044;-91
2023/05/29 06:00:36;;;;;;;12.90;6.28;;;14.90;67.50;;;;;;4772734;30;20130;-90
2023/05/29 06:03:03;;;;;;;17.85;6.68;;;15.00;67.00;;;;;;4757670;29;20662;-89
2023/05/29 06:05:47;;;;;;;19.52;6.45;;;15.10;68.60;;;;;;4772027;29;20528;-89
2023/05/29 06:08:15;;;;;;;16.25;6.28;;;15.30;67.00;;;;;;4757576;30;20417;-89
2023/05/29 06:10:43;;;;;;;17.77;6.80;;;15.40;67.00;;;;;;4772352;30;20464;-89
2023/05/29 06:13:11;;;;;;;19.63;7.28;;;15.40;65.90;;;;;;4772174;29;20062;-90
2023/05/29 06:15:52;;;;;;;18.05;7.15;;;15.50;65.60;;;;;;4772260;29;20047;-89
2023/05/29 06:18:19;;;;;;;15.10;6.30;;;15.70;65.30;;;;;;4774926;30;20134;-89
2023/05/29 06:20:47;;;;;;;15.27;7.28;;;15.70;64.80;;;;;;4760212;30;20096;-90
2023/05/29 06:23:14;;;;;;;12.80;6.63;;;15.80;65.10;;;;;;4760082;30;20051;-89
2023/05/29 06:25:41;;;;;;;17.67;7.63;;;16.00;66.00;;;;;;4760563;30;20066;-89
2023/05/29 06:28:08;;;;;;;20.48;8.30;;;16.00;64.70;;;;;;4774494;30;20077;-89
2023/05/29 06:30:35;;;;;;;14.48;7.90;;;15.90;65.10;;;;;;4760106;30;20471;-89
2023/05/29 06:33:06;;;;;;;18.58;9.20;;;15.90;64.70;;;;;;4760295;29;20051;-89
2023/05/29 06:35:35;;;;;;;19.73;7.73;;;16.00;65.50;;;;;;4774896;30;20073;-89
2023/05/29 06:38:02;;;;;;;14.40;6.95;;;16.00;65.70;;;;;;4764176;30;20055;-89
2023/05/29 06:40:30;;;;;;;14.90;7.30;;;16.10;66.50;;;;;;4774576;30;20051;-89
2023/05/29 06:42:57;;;;;;;17.90;7.57;;;16.10;66.00;;;;;;4759983;30;20138;-88
2023/05/29 06:45:45;;;;;;;15.82;7.80;;;16.20;66.30;;;;;;4774011;30;20100;-89
2023/05/29 06:48:12;;;;;;;21.53;7.73;;;16.30;66.30;;;;;;4774967;30;20142;-89
2023/05/29 06:50:40;;;;;;;16.02;7.72;;;16.40;65.50;;;;;;4765938;30;20054;-89
2023/05/29 06:53:35;;;;;;;16.58;8.13;;;16.50;65.70;;;;;;4762650;29;20047;-89
2023/05/29 06:56:03;;;;;;;33.78;9.65;;;16.40;65.70;;;;;;4774548;30;20676;-88
2023/05/29 06:58:31;;;;;;;19.83;7.97;;;16.60;65.40;;;;;;4759872;30;20047;-87
2023/05/29 07:00:58;;;;;;;16.67;8.23;;;16.80;64.90;;;;;;4759471;30;20039;-88
2023/05/29 07:03:33;;;;;;;16.88;8.73;;;16.80;64.70;;;;;;4760156;29;20119;-88
2023/05/29 07:06:03;;;;;;;15.73;8.30;;;16.90;64.40;;;;;;4776001;29;20047;-87
2023/05/29 07:08:31;;;;;;;17.10;8.32;;;16.70;63.70;;;;;;4777093;29;20047;-89
2023/05/29 07:10:58;;;;;;;14.20;7.30;;;16.60;64.30;;;;;;4759711;30;20059;-87
2023/05/29 07:13:28;;;;;;;18.10;7.77;;;16.70;63.80;;;;;;4759424;30;20055;-87
2023/05/29 07:15:55;;;;;;;19.92;8.30;;;16.90;65.20;;;;;;4759179;30;20065;-87
2023/05/29 07:18:29;;;;;;;19.00;9.02;;;17.10;64.80;;;;;;4760505;30;20039;-87
2023/05/29 07:21:00;;;;;;;18.95;8.43;;;17.10;63.70;;;;;;4760508;29;20091;-92
2023/05/29 07:23:31;;;;;;;17.38;8.10;;;17.10;64.70;;;;;;4774877;30;20079;-91
2023/05/29 07:25:58;;;;;;;15.37;7.50;;;17.00;63.70;;;;;;4774735;29;20055;-93
2023/05/29 07:28:28;;;;;;;15.60;7.28;;;17.10;64.10;;;;;;4774363;30;20064;-93
2023/05/29 07:30:55;;;;;;;20.35;7.00;;;17.00;64.50;;;;;;4774583;29;20078;-91
2023/05/29 07:33:23;;;;;;;16.75;7.13;;;17.00;65.00;;;;;;4759489;30;20047;-89
2023/05/29 07:35:53;;;;;;;15.70;6.25;;;17.20;63.50;;;;;;4759187;29;20054;-89
2023/05/29 07:38:21;;;;;;;17.93;5.73;;;17.00;63.80;;;;;;4757975;30;20054;-89
2023/05/29 07:40:48;;;;;;;12.23;5.68;;;17.10;62.00;;;;;;4759341;30;20426;-89
2023/05/29 07:43:41;;;;;;;19.08;5.82;;;17.20;61.50;;;;;;4771266;30;20104;-88
2023/05/29 07:46:09;;;;;;;16.05;5.55;;;17.30;61.30;;;;;;4773805;30;20155;-89
2023/05/29 07:48:39;;;;;;;18.85;7.10;;;17.40;61.10;;;;;;4759371;30;20063;-90
2023/05/29 07:51:09;;;;;;;16.10;6.60;;;17.30;61.70;;;;;;4773778;30;20545;-89
2023/05/29 07:53:39;;;;;;;13.63;6.05;;;17.40;62.60;;;;;;4753483;30;20578;-89
2023/05/29 07:56:06;;;;;;;14.45;7.15;;;17.60;62.80;;;;;;4758648;30;20479;-89
2023/05/29 07:58:34;;;;;;;16.15;7.35;;;17.70;61.40;;;;;;4773761;30;20051;-89
2023/05/29 08:01:01;;;;;;;16.75;7.07;;;17.80;61.70;;;;;;4773795;30;20061;-89
2023/05/29 08:03:29;;;;;;;17.37;7.97;;;17.90;61.00;;;;;;4758535;29;20051;-89
2023/05/29 08:06:20;;;;;;;14.85;6.10;;;17.90;60.90;;;;;;4762542;30;20526;-89
2023/05/29 08:08:50;;;;;;;15.63;6.43;;;17.90;60.00;;;;;;4758219;30;20047;-90
2023/05/29 08:11:17;;;;;;;13.98;6.60;;;18.00;60.30;;;;;;4758799;30;20068;-89
2023/05/29 08:13:45;;;;;;;17.15;6.55;;;18.10;60.60;;;;;;4758916;30;20118;-89
2023/05/29 08:16:14;;;;;;;17.13;6.93;;;18.20;60.60;;;;;;4773786;30;20526;-89
2023/05/29 08:18:41;;;;;;;18.88;7.55;;;18.50;60.00;;;;;;4773390;30;20058;-89
2023/05/29 08:21:11;;;;;;;14.38;6.63;;;18.60;61.60;;;;;;4753972;30;20048;-89
2023/05/29 08:23:38;;;;;;;13.88;6.28;;;18.70;60.20;;;;;;4757634;29;20189;-89
2023/05/29 08:26:06;;;;;;;13.02;5.90;;;18.80;60.20;;;;;;4757568;30;20047;-89
2023/05/29 08:28:33;;;;;;;10.53;4.63;;;18.80;58.10;;;;;;4773101;29;20058;-90
2023/05/29 08:31:00;;;;;;;10.60;4.60;;;18.50;57.50;;;;;;4758694;30;20547;-90
2023/05/29 08:33:31;;;;;;;11.48;4.93;;;18.60;58.30;;;;;;4773200;29;20075;-89
2023/05/29 08:36:00;;;;;;;10.88;5.05;;;18.60;60.10;;;;;;4756341;30;20049;-89
2023/05/29 08:38:27;;;;;;;11.45;5.32;;;18.70;59.50;;;;;;4758550;30;20574;-89
2023/05/29 08:40:57;;;;;;;12.47;5.23;;;18.80;59.20;;;;;;4760926;30;20456;-90
2023/05/29 08:43:28;;;;;;;14.40;5.57;;;18.80;60.10;;;;;;4773498;30;20047;-89
2023/05/29 08:45:59;;;;;;;11.93;5.88;;;19.00;59.00;;;;;;4773044;30;20051;-89
2023/05/29 08:48:28;;;;;;;11.63;5.00;;;19.20;58.50;;;;;;4761217;30;20109;-89
2023/05/29 08:50:58;;;;;;;11.52;5.25;;;19.10;57.40;;;;;;4758098;30;20047;-89
2023/05/29 08:53:25;;;;;;;11.80;5.37;;;19.20;57.50;;;;;;4772976;30;20047;-89
2023/05/29 08:55:53;;;;;;;12.88;5.10;;;19.30;57.10;;;;;;4758318;30;20514;-90
2023/05/29 08:58:21;;;;;;;15.13;5.25;;;19.30;55.50;;;;;;4758268;30;20051;-89
2023/05/29 09:00:49;;;;;;;12.63;5.00;;;19.50;54.70;;;;;;4773125;29;20047;-90
2023/05/29 09:03:17;;;;;;;12.10;5.60;;;19.40;55.10;;;;;;4759720;30;20100;-90
2023/05/29 09:05:45;;;;;;;12.30;5.40;;;19.40;56.60;;;;;;4773439;30;20065;-90
2023/05/29 09:08:13;;;;;;;10.68;4.32;;;19.30;56.90;;;;;;4758185;30;20510;-90
2023/05/29 09:10:44;;;;;;;14.63;4.95;;;19.40;56.20;;;;;;4755290;30;20051;-89
2023/05/29 09:13:13;;;;;;;12.30;3.85;;;19.50;55.20;;;;;;4756501;30;20060;-89
2023/05/29 09:15:42;;;;;;;12.95;3.90;;;19.60;54.10;;;;;;4757854;30;20406;-89
2023/05/29 09:18:11;;;;;;;10.17;4.10;;;19.50;54.20;;;;;;4777954;29;20055;-89
2023/05/29 09:20:38;;;;;;;11.50;4.15;;;19.60;54.40;;;;;;4758969;30;20051;-90
2023/05/29 09:23:08;;;;;;;10.65;4.65;;;19.60;54.90;;;;;;4758692;30;20082;-89
2023/05/29 09:25:42;;;;;;;14.52;4.45;;;19.50;54.50;;;;;;4769033;30;20138;-91
2023/05/29 09:28:10;;;;;;;11.57;4.50;;;19.60;54.60;;;;;;4772176;29;20079;-90
2023/05/29 09:30:44;;;;;;;12.53;3.93;;;19.60;54.10;;;;;;4772479;30;20130;-87
2023/05/29 09:33:13;;;;;;;9.93;3.67;;;19.70;53.80;;;;;;4757630;30;20416;-89
2023/05/29 09:35:45;;;;;;;9.38;3.63;;;19.90;54.70;;;;;;4772554;30;20079;-89
2023/05/29 09:38:16;;;;;;;11.77;3.50;;;20.20;53.60;;;;;;4757936;29;20047;-89
2023/05/29 09:41:05;;;;;;;7.75;2.97;;;20.30;52.30;;;;;;4762499;30;20043;-90
2023/05/29 09:43:33;;;;;;;9.30;3.50;;;20.20;52.10;;;;;;4757360;30;20063;-88
2023/05/29 09:46:01;;;;;;;10.75;3.45;;;20.10;52.20;;;;;;4772831;30;20066;-88
2023/05/29 09:48:31;;;;;;;9.63;3.47;;;20.20;52.30;;;;;;4757985;29;20460;-87
2023/05/29 09:51:02;;;;;;;9.40;3.38;;;20.10;52.40;;;;;;4758786;30;20542;-86
2023/05/29 09:53:29;;;;;;;8.80;3.03;;;20.30;52.40;;;;;;4761231;30;20063;-87
2023/05/29 09:55:59;;;;;;;10.80;3.40;;;20.40;53.30;;;;;;4775490;30;20051;-87
2023/05/29 09:58:27;;;;;;;9.57;2.97;;;20.60;52.50;;;;;;4760939;30;20059;-86
2023/05/29 10:00:56;;;;;;;9.52;3.08;;;20.90;52.70;;;;;;4775821;30;20047;-85
2023/05/29 10:03:23;;;;;;;15.10;3.20;;;21.10;52.20;;;;;;4771698;30;20054;-86
2023/05/29 10:05:56;;;;;;;8.50;3.08;;;21.20;50.60;;;;;;4775459;30;20063;-89
2023/05/29 10:08:36;;;;;;;7.97;3.07;;;21.20;49.60;;;;;;4761931;30;20047;-85
2023/05/29 10:11:09;;;;;;;9.88;3.08;;;21.20;49.30;;;;;;4760580;30;20130;-87
2023/05/29 10:13:45;;;;;;;8.77;2.90;;;21.20;51.00;;;;;;4760668;30;20052;-86
2023/05/29 10:16:12;;;;;;;10.45;2.72;;;21.30;49.80;;;;;;4760486;30;20130;-88
2023/05/29 10:18:45;;;;;;;10.10;3.15;;;21.30;49.90;;;;;;4760995;30;20062;-88
2023/05/29 10:21:14;;;;;;;13.37;3.03;;;21.10;48.60;;;;;;4776052;30;20112;-89
2023/05/29 10:23:48;;;;;;;9.80;2.75;;;21.10;49.10;;;;;;4776092;30;20051;-88
2023/05/29 10:26:21;;;;;;;8.60;2.92;;;21.30;49.60;;;;;;4775379;30;20047;-88
2023/05/29 10:29:07;;;;;;;35.38;2.90;;;21.50;49.00;;;;;;4774873;30;20055;-88
2023/05/29 10:31:56;;;;;;;7.07;2.72;;;21.60;49.20;;;;;;4767162;30;20122;-88
2023/05/29 10:34:33;;;;;;;11.77;3.43;;;21.50;49.50;;;;;;4775118;30;20054;-88
2023/05/29 10:37:27;;;;;;;9.85;2.80;;;21.60;49.20;;;;;;4771897;29;20043;-89
2023/05/29 10:40:11;;;;;;;10.07;2.55;;;21.60;50.90;;;;;;4775370;29;20047;-89
2023/05/29 10:42:52;;;;;;;15.02;3.05;;;21.60;49.00;;;;;;4760344;30;20052;-89
2023/05/29 10:45:45;;;;;;;9.25;3.10;;;21.80;49.60;;;;;;4760659;29;20071;-88
2023/05/29 10:48:12;;;;;;;8.57;2.43;;;22.00;48.30;;;;;;4757011;29;20136;-88
2023/05/29 10:50:42;;;;;;;8.25;2.65;;;21.90;49.10;;;;;;4774764;30;20061;-89
2023/05/29 10:53:14;;;;;;;7.90;2.90;;;21.80;48.60;;;;;;4781145;29;20055;-91
2023/05/29 10:55:42;;;;;;;11.55;2.83;;;22.00;49.80;;;;;;4778714;29;20505;-93
2023/05/29 10:58:24;;;;;;;8.38;2.60;;;22.20;48.60;;;;;;4778873;29;20487;-92
2023/05/29 11:00:57;;;;;;;5.90;2.00;;;22.40;48.60;;;;;;4779322;29;20063;-92
2023/05/29 11:03:30;;;;;;;8.68;2.90;;;22.40;48.50;;;;;;4767579;30;20051;-87
2023/05/29 11:06:02;;;;;;;9.02;2.38;;;22.30;46.40;;;;;;4759608;30;20055;-86
2023/05/29 11:08:47;;;;;;;7.13;2.63;;;22.20;46.30;;;;;;4771898;30;20048;-85
2023/05/29 11:11:28;;;;;;;7.68;2.60;;;22.30;48.40;;;;;;4774411;30;20062;-86
2023/05/29 11:13:59;;;;;;;10.87;2.90;;;22.50;47.30;;;;;;4772341;30;20055;-85
2023/05/29 11:16:29;;;;;;;7.60;2.47;;;22.40;46.60;;;;;;4773663;29;20074;-86
2023/05/29 11:18:58;;;;;;;6.75;2.70;;;22.50;47.40;;;;;;4773789;30;20118;-85
2023/05/29 11:21:45;;;;;;;7.78;2.28;;;22.60;48.10;;;;;;4773615;30;20143;-86
2023/05/29 11:24:27;;;;;;;6.80;2.72;;;22.70;46.70;;;;;;4759154;30;20148;-85
2023/05/29 11:26:56;;;;;;;8.10;2.60;;;22.70;44.70;;;;;;4772900;30;20051;-84
2023/05/29 11:29:28;;;;;;;74.22;7.63;;;22.70;44.50;;;;;;4758832;30;20039;-86
2023/05/29 11:32:16;;;;;;;10.13;2.45;;;22.70;46.50;;;;;;4774007;29;20258;-85
2023/05/29 11:34:46;;;;;;;7.55;2.45;;;22.90;45.20;;;;;;4758898;30;20078;-86
2023/05/29 11:37:14;;;;;;;10.02;2.60;;;22.90;44.40;;;;;;4758631;30;20071;-87
2023/05/29 11:39:42;;;;;;;7.40;2.20;;;23.10;44.70;;;;;;4758741;30;20521;-86
2023/05/29 11:42:09;;;;;;;8.25;2.80;;;23.10;44.60;;;;;;4751038;30;20044;-86
2023/05/29 11:44:36;;;;;;;7.63;2.50;;;23.10;44.30;;;;;;4759008;30;20043;-87
2023/05/29 11:47:07;;;;;;;7.03;2.30;;;23.10;43.20;;;;;;4773755;30;20051;-87
2023/05/29 11:49:36;;;;;;;7.75;2.75;;;22.90;43.40;;;;;;4773300;30;20078;-87
2023/05/29 11:52:11;;;;;;;7.13;2.60;;;23.00;44.10;;;;;;4773218;30;20063;-86
2023/05/29 11:54:47;;;;;;;7.10;2.25;;;23.10;43.60;;;;;;4758872;30;20051;-87
2023/05/29 11:57:22;;;;;;;8.13;2.90;;;23.20;42.70;;;;;;4758078;30;20070;-88
2023/05/29 11:59:51;;;;;;;10.02;2.90;;;23.20;43.40;;;;;;4770451;30;20134;-87
2023/05/29 12:02:19;;;;;;;11.07;3.17;;;23.30;42.40;;;;;;4758244;30;20047;-87
2023/05/29 12:05:08;;;;;;;7.87;2.13;;;23.30;42.80;;;;;;4758238;30;20444;-87
2023/05/29 12:07:36;;;;;;;9.60;2.55;;;23.10;42.00;;;;;;4771099;30;20112;-90
2023/05/29 12:10:15;;;;;;;7.68;2.80;;;23.20;40.00;;;;;;4763134;30;20051;-90
2023/05/29 12:13:00;;;;;;;6.82;2.60;;;23.20;40.80;;;;;;4758815;30;20063;-88
2023/05/29 12:15:28;;;;;;;7.90;2.65;;;23.30;40.30;;;;;;4758353;30;20490;-88
2023/05/29 12:17:56;;;;;;;8.87;2.40;;;23.30;39.80;;;;;;4756405;30;20449;-87
2023/05/29 12:20:26;;;;;;;8.50;2.80;;;23.40;39.80;;;;;;4773110;29;20081;-88
2023/05/29 12:23:01;;;;;;;9.35;2.70;;;23.40;40.10;;;;;;4758274;30;20077;-88
2023/05/29 12:25:28;;;;;;;8.52;2.85;;;23.40;41.30;;;;;;4758606;30;20051;-89
2023/05/29 12:27:57;;;;;;;7.75;3.20;;;23.60;39.90;;;;;;4759850;30;20051;-87
2023/05/29 12:30:25;;;;;;;7.70;2.77;;;23.50;37.60;;;;;;4758000;30;20055;-87
2023/05/29 12:32:56;;;;;;;8.63;3.13;;;23.50;38.20;;;;;;4758645;30;20055;-86
2023/05/29 12:35:25;;;;;;;27.23;3.88;;;23.50;39.10;;;;;;4772600;29;20047;-87
2023/05/29 12:37:58;;;;;;;7.38;2.80;;;23.60;39.60;;;;;;4772899;30;20126;-87
2023/05/29 12:40:27;;;;;;;8.57;3.10;;;23.60;38.20;;;;;;4772737;30;20055;-88
2023/05/29 12:43:00;;;;;;;10.07;3.00;;;23.60;40.10;;;;;;4758348;30;20044;-87
2023/05/29 12:45:30;;;;;;;7.22;2.63;;;23.70;37.60;;;;;;4772896;30;20051;-87
2023/05/29 12:48:06;;;;;;;8.38;3.08;;;23.80;40.20;;;;;;4758821;30;20420;-88
2023/05/29 12:50:37;;;;;;;9.73;3.15;;;23.80;40.10;;;;;;4757561;30;20047;-88
2023/05/29 12:53:09;;;;;;;9.63;3.25;;;23.80;39.00;;;;;;4757729;30;20054;-88
2023/05/29 12:55:40;;;;;;;8.77;2.80;;;23.80;40.50;;;;;;4772083;29;20118;-88
2023/05/29 12:58:12;;;;;;;8.10;2.67;;;23.80;40.30;;;;;;4763505;30;20070;-87
2023/05/29 13:00:41;;;;;;;7.43;2.88;;;23.60;40.30;;;;;;4757705;29;20055;-88
2023/05/29 13:03:11;;;;;;;14.48;3.45;;;23.60;41.00;;;;;;4772637;30;20047;-90
2023/05/29 13:05:38;;;;;;;7.95;3.10;;;23.80;40.20;;;;;;4769813;30;20068;-85
2023/05/29 13:08:07;;;;;;;10.53;3.30;;;23.70;39.70;;;;;;4773351;29;20101;-88
2023/05/29 13:10:35;;;;;;;8.10;2.92;;;24.00;41.70;;;;;;4772063;30;20059;-88
2023/05/29 13:13:03;;;;;;;9.10;3.35;;;24.00;41.20;;;;;;4772219;30;20056;-88
2023/05/29 13:15:32;;;;;;;8.57;3.15;;;24.20;44.50;;;;;;4772187;30;20047;-87
2023/05/29 13:18:00;;;;;;;9.02;3.30;;;24.20;40.30;;;;;;4772247;30;20427;-88
2023/05/29 13:20:27;;;;;;;8.90;3.23;;;24.20;40.50;;;;;;4757546;30;20047;-89
2023/05/29 13:22:54;;;;;;;9.88;3.08;;;24.30;40.40;;;;;;4756495;29;20051;-90
2023/05/29 13:25:23;;;;;;;9.73;3.30;;;24.30;41.20;;;;;;4773117;30;20054;-88
2023/05/29 13:27:51;;;;;;;12.27;3.55;;;24.20;39.70;;;;;;4761439;30;20051;-89
2023/05/29 13:30:19;;;;;;;9.00;2.95;;;24.30;40.80;;;;;;4775649;29;20104;-88